Monticello, Maine
46° 20' 20"N, 67° 53' 10"W, Elevation 575 ft.
Eastern Time

Hourly observations for the last 48 hours

Date

Time

Temperature (F) Humi-
dity
(%)
Wind
(mph)
Pressure Rain (in) Sun
(W/m2)
UV ET
(in)
Air Dew 6 Hour 1 Hr 3 Hr 6 Hr Day
Alt
(in)
Sea
Level
(mb)
Max Min
24 21:00 17.8 12.7 80 Calm 30.42 1030.0 0.00 0 0.0 0.026
24 20:00 21.6 15.5 77 N 2 G 4 30.42 1030.0 0.00 0 0.0 0.026
24 19:00 21.4 15.6 28.5 18.9 78 N 4 G 7 30.41 1030.0 0.00 0 0.0 0.025
24 18:00 21.8 16.0 78 N 5 G 7 30.42 1030.2 0.00 0 0.0 0.025
24 17:00 19.1 13.9 80 N 4 G 5 30.42 1030.0 0.00 0 0.0 0.025
24 16:00 25.4 17.0 70 NNE 0 G 2 30.41 1029.8 0.00 12 0.0 0.024
24 15:00 28.5 18.9 67 NNE 3 G 6 30.42 1030.0 0.00 172 0.0 0.021
24 14:00 27.3 18.5 69 N 2 G 7 30.41 1029.9 0.00 116 0.6 0.018
24 13:00 27.9 18.7 30.0 24.5 68 N 8 G 11 30.41 1030.0 0.00 339 1.2 0.014
24 12:00 28.5 19.3 68 N 6 G 13 30.44 1030.9 0.00 527 1.7 0.009
24 11:00 26.3 18.8 73 N 6 G 11 30.46 1031.5 0.00 272 1.3 0.005
24 10:00 24.7 18.5 77 N 7 G 13 30.44 1031.0 0.00 269 1.0 0.003
24 09:00 26.0 19.2 75 NNW 5 G 12 30.41 1030.0 0.00 135 0.0 0.001
24 08:00 25.8 19.9 78 N 5 G 11 30.40 1029.6 0.00 42 0.0 0.000
24 07:00 27.2 24.4 27.3 23.2 89 N 2 G 5 30.38 1028.6 0.00 0 0.0 0.000
24 06:00 27.2 24.4 89 N 2 G 4 30.35 1027.9 0.00 0 0.0 0.000
24 05:00 27.0 24.5 90 WNW 0 G 2 30.32 1026.6 0.00 0 0.0 0.000
24 04:00 27.2 24.7 90 SW 0 G 5 30.31 1026.3 0.00 0 0.0 0.000
24 03:00 25.6 23.9 93 W 1 G 6 30.30 1026.0 0.00 0 0.0 0.000
24 02:00 23.2 20.7 90 WNW 0 G 3 30.28 1025.6 0.00 0 0.0 0.000
24 01:00 25.6 22.8 30.9 25.6 89 W 2 G 5 30.26 1024.6 0.00 0 0.0 0.000
24 00:00 26.4 24.1 91 WSW 2 G 5 30.25 1024.4 0.01 0 0.0 0.021
23 23:00 26.4 23.6 89 W 2 G 6 30.24 1024.2 0.01 0 0.0 0.021
23 22:00 28.1 25.3 89 W 2 G 6 30.22 1023.4 0.01 0 0.0 0.021
23 21:00 27.2 24.7 90 W 1 G 3 30.22 1023.5 0.01 0 0.0 0.021
23 20:00 27.9 24.8 88 W 1 G 3 30.21 1023.0 0.01 0 0.0 0.021
23 19:00 30.9 27.5 35.9 30.0 87 W 0 G 6 30.19 1022.3 0.01 0.01 0 0.0 0.021
23 18:00 30.3 29.0 95 WNW 1 G 7 30.18 1021.9 0.01 0 0.0 0.021
23 17:00 30.7 29.4 95 Calm 30.16 1021.4 0.01 0 0.0 0.021
23 16:00 33.1 31.6 94 W 2 G 4 30.16 1021.2 0.01 0.01 0.01 12 0.0 0.020
23 15:00 35.0 32.6 91 W 3 G 10 30.14 1020.8 0.00 97 0.0 0.017
23 14:00 35.6 30.4 81 SW 3 G 10 30.14 1020.6 0.00 281 0.7 0.012
23 13:00 34.0 27.9 34.0 19.7 78 SW 6 G 14 30.13 1020.4 0.00 350 1.1 0.008
23 12:00 32.9 26.8 78 SW 5 G 14 30.14 1020.8 0.00 193 1.1 0.005
23 11:00 31.2 25.8 80 SW 2 G 13 30.15 1021.0 0.00 151 0.7 0.003
23 10:00 27.2 23.0 84 Calm 30.16 1021.4 0.00 190 0.8 0.001
23 09:00 24.2 20.9 87 SE 1 G 4 30.16 1021.2 0.00 160 0.0 0.000
23 08:00 19.9 17.4 90 SE 0 G 1 30.16 1021.3 0.00 28 0.0 0.000
23 07:00 19.7 17.2 19.7 16.1 90 SE 0 G 2 30.15 1021.0 0.00 0 0.0 0.000
23 06:00 19.4 17.2 91 SE 1 G 2 30.14 1020.5 0.00 0 0.0 0.000
23 05:00 18.8 16.6 91 SE 1 G 3 30.15 1021.0 0.00 0 0.0 0.000
23 04:00 16.1 13.4 89 Calm 30.14 1020.8 0.00 0 0.0 0.000
23 03:00 17.0 14.1 88 SE 0 G 2 30.15 1020.9 0.00 0 0.0 0.000
23 02:00 17.3 14.6 89 SE 0 G 3 30.16 1021.4 0.00 0 0.0 0.000
23 01:00 17.0 14.3 17.8 13.8 89 SSE 1 G 4 30.16 1021.2 0.00 0 0.0 0.000
23 00:00 17.3 14.4 88 SSE 2 G 7 30.17 1021.6 0.00 0 0.0 0.013
22 23:00 17.5 14.8 89 SSE 3 G 5 30.19 1022.2 0.00 0 0.0 0.013
22 22:00 15.6 12.9 89 SSE 2 G 4 30.20 1022.9 0.00 0 0.0 0.013
22 21:00 14.4 12.0 90 S 2 G 6 30.22 1023.4 0.00 0 0.0 0.013
22 20:00 15.1 11.4 85 SSE 0 G 4 30.23 1023.8 0.00 0 0.0 0.013
22 19:00 17.5 14.3 26.7 17.5 87 S 2 G 4 30.23 1023.7 0.00 0 0.0 0.013
22 18:00 20.2 17.0 87 SSE 3 G 5 30.22 1023.5 0.00 0 0.0 0.013
22 17:00 22.7 18.9 85 S 2 G 5 30.22 1023.5 0.00 0 0.0 0.013
22 16:00 24.5 19.8 82 S 3 G 6 30.23 1023.8 0.00 25 0.0 0.012
22 15:00 25.8 20.5 80 S 5 G 12 30.23 1023.8 0.00 49 0.0 0.010
22 14:00 25.1 20.1 81 SSE 2 G 6 30.24 1023.9 0.00 123 0.0 0.008
22 13:00 23.2 18.2 23.2 6.7 81 S 2 G 4 30.24 1024.2 0.00 128 0.0 0.007
22 12:00 21.6 16.4 80 SSE 2 G 4 30.26 1024.9 0.00 121 0.0 0.005
22 11:00 20.2 14.4 78 E 3 G 5 30.28 1025.5 0.00 362 0.7 0.001
22 10:00 13.6 9.1 82 S 1 G 3 30.31 1026.3 0.00 151 0.5 0.000
22 09:00 10.4 6.8 85 S 2 G 3 30.30 1026.1 0.00 72 0.0 0.000
22 08:00 7.7 4.1 85 Calm 30.30 1026.2 0.00 33 0.0 0.000
22 07:00 6.7 2.9 6.7 3.2 84 Calm 30.29 1025.8 0.00 0 0.0 0.000
22 06:00 6.1 2.0 83 Calm 30.29 1025.6 0.00 0 0.0 0.000
22 05:00 5.8 1.8 83 Calm 30.27 1025.1 0.00 0 0.0 0.000
22 04:00 4.8 0.8 83 Calm 30.26 1024.8 0.00 0 0.0 0.000
22 03:00 3.9 -0.1 83 Calm 30.25 1024.3 0.00 0 0.0 0.000
22 02:00 3.5 -0.8 82 Calm 30.26 1024.8 0.00 0 0.0 0.000
22 01:00 3.2 -1.1 3.2 -0.6 82 S 0 G 2 30.25 1024.5 0.00 0 0.0 0.000
22 00:00 1.7 -2.8 81 Calm 30.26 1024.7 0.00 0 0.0 0.018
21 23:00 1.7 -2.8 81 S 0 G 2 30.27 1025.0 0.00 0 0.0 0.018
21 22:00 2.2 -2.6 80 Calm 30.26 1024.9 0.00 0 0.0 0.018

Data generated by WxSolution Version 1.9.1.7, Build 2018.11.24.